Time;durP1;ratioP1;P1;durP2;ratioP2;P2;SDS_P1;SDS_P2;PMS_P1;PMS_P2;Temp;Humidity;BMP_temperature;BMP_pressure;BME280_temperature;BME280_humidity;BME280_pressure;Samples;Min_cycle;Max_cycle;Signal;HPM_P1;HPM_P2
2022/10/16 00:01:42;;;;;;;27.05;18.35;;;13.80;99.90;;;;;;6191119;23;20008;-91
2022/10/16 00:04:13;;;;;;;31.88;19.73;;;13.80;99.90;;;;;;6166886;23;20005;-92
2022/10/16 00:06:40;;;;;;;34.38;20.40;;;13.80;99.90;;;;;;6166953;23;20008;-95
2022/10/16 00:09:07;;;;;;;36.95;21.15;;;13.90;99.90;;;;;;6166571;23;20430;-90
2022/10/16 00:11:37;;;;;;;34.10;20.33;;;13.90;99.90;;;;;;6166565;23;20383;-90
2022/10/16 00:14:08;;;;;;;35.97;20.50;;;13.90;99.90;;;;;;6191667;23;20070;-92
2022/10/16 00:16:35;;;;;;;36.33;20.00;;;14.00;99.90;;;;;;6191745;23;20480;-91
2022/10/16 00:19:02;;;;;;;36.20;20.55;;;14.00;99.90;;;;;;6166387;23;20427;-90
2022/10/16 00:21:31;;;;;;;34.72;19.55;;;14.10;99.90;;;;;;6166978;23;20016;-90
2022/10/16 00:24:01;;;;;;;35.15;19.77;;;14.00;99.90;;;;;;6167076;23;20000;-91
2022/10/16 00:26:30;;;;;;;34.35;20.20;;;14.00;99.90;;;;;;6191262;23;20036;-90
2022/10/16 00:28:57;;;;;;;34.85;22.20;;;14.00;99.90;;;;;;6166382;23;20008;-89
2022/10/16 00:31:25;;;;;;;38.70;22.13;;;14.00;99.90;;;;;;6166569;23;20009;-92
2022/10/16 00:33:54;;;;;;;41.97;22.98;;;14.00;99.90;;;;;;6166132;23;20000;-90
2022/10/16 00:36:23;;;;;;;43.47;23.52;;;14.10;99.90;;;;;;6166138;23;20035;-92
2022/10/16 00:38:59;;;;;;;41.25;23.10;;;14.00;99.90;;;;;;6165703;23;20095;-90
2022/10/16 00:41:26;;;;;;;37.85;22.55;;;14.00;99.90;;;;;;6190251;23;20047;-92
2022/10/16 00:44:00;;;;;;;43.30;25.83;;;14.00;99.90;;;;;;6165714;23;20082;-90
2022/10/16 00:46:33;;;;;;;40.25;24.52;;;14.00;99.90;;;;;;6165827;23;20015;-90
2022/10/16 00:49:19;;;;;;;47.53;24.85;;;14.00;99.90;;;;;;6190343;23;20019;-90
2022/10/16 00:51:52;;;;;;;50.97;25.27;;;14.00;99.90;;;;;;6166140;23;20036;-90
2022/10/16 00:54:29;;;;;;;48.85;24.75;;;14.00;99.90;;;;;;6166305;23;20460;-90
2022/10/16 00:57:04;;;;;;;47.15;26.58;;;14.00;99.90;;;;;;6190203;23;20087;-90
2022/10/16 00:59:35;;;;;;;51.92;26.52;;;14.00;99.90;;;;;;6165712;23;20013;-91
2022/10/16 01:02:05;;;;;;;47.22;24.33;;;14.00;99.90;;;;;;6190476;23;20088;-90
2022/10/16 01:04:43;;;;;;;44.40;24.48;;;14.00;99.90;;;;;;6165618;23;19996;-92
2022/10/16 01:07:49;;;;;;;45.65;24.38;;;14.00;99.90;;;;;;6190391;23;20343;-90
2022/10/16 01:10:25;;;;;;;;;;;13.90;99.90;;;;;;6191227;23;20190;-92
2022/10/16 01:12:56;;;;;;;44.35;23.77;;;13.90;99.90;;;;;;6166520;23;20250;-91
2022/10/16 01:15:30;;;;;;;54.17;27.13;;;13.80;99.90;;;;;;6190085;23;20013;-90
2022/10/16 01:18:09;;;;;;;45.97;25.35;;;13.80;99.90;;;;;;6166228;23;20043;-89
2022/10/16 01:21:01;;;;;;;43.65;23.42;;;13.80;99.90;;;;;;6183264;23;20328;-90
2022/10/16 01:23:52;;;;;;;49.95;25.35;;;13.70;99.90;;;;;;6157898;23;20013;-91
2022/10/16 01:26:37;;;;;;;46.13;24.58;;;13.70;99.90;;;;;;6192303;23;20013;-92
2022/10/16 01:29:24;;;;;;;47.15;24.45;;;13.60;99.90;;;;;;6192407;23;20068;-90
2022/10/16 01:32:01;;;;;;;51.10;25.42;;;13.60;99.90;;;;;;6192514;23;20016;-90
2022/10/16 01:34:38;;;;;;;57.30;26.73;;;13.60;99.90;;;;;;6192216;23;20009;-89
2022/10/16 01:37:15;;;;;;;49.45;26.20;;;13.60;99.90;;;;;;6191681;23;20017;-90
2022/10/16 01:39:48;;;;;;;48.45;26.73;;;13.60;99.90;;;;;;6192120;23;20036;-91
2022/10/16 01:42:23;;;;;;;50.38;26.77;;;13.60;99.90;;;;;;6167640;23;20013;-90
2022/10/16 01:44:52;;;;;;;56.70;28.75;;;13.60;99.90;;;;;;6167525;23;20016;-90
2022/10/16 01:47:25;;;;;;;61.88;30.65;;;13.70;99.90;;;;;;6167272;23;20008;-90
2022/10/16 01:49:53;;;;;;;58.28;29.17;;;13.70;99.90;;;;;;6192397;23;20004;-90
2022/10/16 01:52:25;;;;;;;58.20;28.27;;;13.70;99.90;;;;;;6167577;23;20004;-90
2022/10/16 01:54:57;;;;;;;49.42;25.95;;;13.70;99.90;;;;;;6192457;23;20441;-90
2022/10/16 01:57:26;;;;;;;60.92;30.25;;;13.80;99.90;;;;;;6167578;23;20008;-91
2022/10/16 01:59:58;;;;;;;59.60;29.45;;;13.80;99.90;;;;;;6167635;23;20039;-88
2022/10/16 02:02:30;;;;;;;62.03;30.63;;;13.80;99.90;;;;;;6167585;23;20009;-92
2022/10/16 02:05:16;;;;;;;64.40;29.33;;;13.80;99.90;;;;;;6191910;23;20040;-91
2022/10/16 02:07:43;;;;;;;65.80;30.58;;;13.70;99.90;;;;;;6167371;23;20012;-90
2022/10/16 02:10:11;;;;;;;46.75;25.98;;;13.70;99.90;;;;;;6192044;23;20009;-91
2022/10/16 02:12:43;;;;;;;66.95;29.45;;;13.70;99.90;;;;;;6167175;23;20087;-89
2022/10/16 02:15:10;;;;;;;52.00;26.92;;;13.70;99.90;;;;;;6167062;23;20009;-91
2022/10/16 02:17:37;;;;;;;55.95;28.23;;;13.60;99.90;;;;;;6167128;23;20001;-90
2022/10/16 02:20:05;;;;;;;56.80;27.55;;;13.60;99.90;;;;;;6191666;23;20446;-91
2022/10/16 02:22:36;;;;;;;60.42;29.08;;;13.60;99.90;;;;;;6166981;23;20009;-92
2022/10/16 02:25:17;;;;;;;61.40;29.17;;;13.60;99.90;;;;;;6167410;23;20015;-90
2022/10/16 02:27:55;;;;;;;67.13;31.10;;;13.60;99.90;;;;;;6167223;23;20009;-90
2022/10/16 02:30:25;;;;;;;63.75;30.85;;;13.60;99.90;;;;;;6191816;23;20142;-91
2022/10/16 02:32:55;;;;;;;62.63;29.98;;;13.60;99.90;;;;;;6166900;23;20008;-90
2022/10/16 02:35:23;;;;;;;60.72;30.08;;;13.60;99.90;;;;;;6166711;23;20087;-90
2022/10/16 02:37:51;;;;;;;59.72;29.55;;;13.70;99.90;;;;;;6191305;23;20016;-89
2022/10/16 02:40:19;;;;;;;64.13;29.80;;;13.70;99.90;;;;;;6166557;23;20016;-90
2022/10/16 02:42:52;;;;;;;66.22;30.48;;;13.70;99.90;;;;;;6191667;23;20005;-89
2022/10/16 02:45:19;;;;;;;52.50;27.02;;;13.60;99.90;;;;;;6167220;23;20016;-91
2022/10/16 02:47:46;;;;;;;57.28;26.83;;;13.60;99.90;;;;;;6191835;23;20036;-92
2022/10/16 02:50:13;;;;;;;58.60;26.65;;;13.60;99.90;;;;;;6167329;23;20092;-92
2022/10/16 02:52:40;;;;;;;60.55;28.13;;;13.50;99.90;;;;;;6189732;23;20004;-89
2022/10/16 02:55:07;;;;;;;55.80;26.35;;;13.40;99.90;;;;;;6195621;23;20039;-90
2022/10/16 02:57:35;;;;;;;48.10;26.05;;;13.40;99.90;;;;;;6166556;23;20009;-91
2022/10/16 03:00:03;;;;;;;50.03;26.55;;;13.30;99.90;;;;;;6166669;23;20020;-91
2022/10/16 03:02:29;;;;;;;58.17;30.25;;;13.30;99.90;;;;;;6166685;23;20000;-91
2022/10/16 03:04:56;;;;;;;65.50;29.98;;;13.30;99.90;;;;;;6167057;23;20012;-91
2022/10/16 03:07:23;;;;;;;63.67;30.33;;;13.40;99.90;;;;;;6156517;23;20010;-89
2022/10/16 03:09:50;;;;;;;69.68;31.80;;;13.50;99.90;;;;;;6132222;23;20016;-91
2022/10/16 03:12:16;;;;;;;64.50;30.77;;;13.50;99.90;;;;;;6106733;23;20096;-89
2022/10/16 03:14:43;;;;;;;63.05;31.38;;;13.50;99.90;;;;;;6106944;23;20029;-91
2022/10/16 03:17:10;;;;;;;62.88;30.95;;;13.50;99.90;;;;;;6131118;23;20014;-90
2022/10/16 03:19:37;;;;;;;69.07;32.35;;;13.50;99.90;;;;;;6107055;23;20024;-90
2022/10/16 03:22:04;;;;;;;62.47;31.25;;;13.50;99.90;;;;;;6131335;23;20040;-91
2022/10/16 03:24:31;;;;;;;66.88;32.03;;;13.50;99.90;;;;;;6107057;23;20013;-90
2022/10/16 03:26:58;;;;;;;55.47;29.85;;;13.50;99.90;;;;;;6107641;23;20009;-91
2022/10/16 03:29:25;;;;;;;59.00;29.38;;;13.50;99.90;;;;;;6131034;23;20037;-89
2022/10/16 03:31:52;;;;;;;61.25;31.45;;;13.50;99.90;;;;;;6106827;23;20582;-91
2022/10/16 03:34:18;;;;;;;57.17;30.45;;;13.40;99.90;;;;;;6130973;23;20006;-89
2022/10/16 03:36:45;;;;;;;57.72;30.52;;;13.50;99.90;;;;;;6106855;23;20045;-91
2022/10/16 03:39:12;;;;;;;65.15;30.20;;;13.40;99.90;;;;;;6106693;23;20032;-91
2022/10/16 03:41:38;;;;;;;70.40;30.63;;;13.40;99.90;;;;;;6106617;23;20013;-91
2022/10/16 03:44:05;;;;;;;62.38;28.45;;;13.40;99.90;;;;;;6114388;23;20001;-91
2022/10/16 03:46:32;;;;;;;64.70;31.00;;;13.40;99.90;;;;;;6185974;23;20009;-89
2022/10/16 03:49:01;;;;;;;65.22;30.60;;;13.40;99.90;;;;;;6185907;23;20080;-91
2022/10/16 03:51:28;;;;;;;68.07;31.52;;;13.40;99.90;;;;;;6185800;23;20016;-90
2022/10/16 03:53:55;;;;;;;65.50;29.88;;;13.30;99.90;;;;;;6161055;23;20084;-90
2022/10/16 03:56:22;;;;;;;65.25;30.60;;;13.30;99.90;;;;;;6186012;23;20009;-90
2022/10/16 03:58:48;;;;;;;61.58;31.02;;;13.30;99.90;;;;;;6161798;23;20370;-92
2022/10/16 04:01:15;;;;;;;61.88;30.17;;;13.30;99.90;;;;;;6186052;23;20021;-91
2022/10/16 04:03:41;;;;;;;59.65;29.58;;;13.30;99.90;;;;;;6186247;23;20011;-92
2022/10/16 04:06:08;;;;;;;66.93;31.33;;;13.30;99.90;;;;;;6160913;23;20442;-90
2022/10/16 04:08:36;;;;;;;61.47;29.60;;;13.30;99.90;;;;;;6185896;23;20054;-91
2022/10/16 04:11:03;;;;;;;65.07;31.65;;;13.30;99.90;;;;;;6136688;23;20014;-92
2022/10/16 04:13:33;;;;;;;81.20;34.70;;;13.30;99.90;;;;;;6161160;23;20317;-90
2022/10/16 04:15:59;;;;;;;70.43;33.42;;;13.30;99.90;;;;;;6161154;23;20047;-91
2022/10/16 04:18:27;;;;;;;77.20;35.30;;;13.30;99.90;;;;;;6160989;23;20013;-91
2022/10/16 04:20:54;;;;;;;81.63;35.13;;;13.30;99.90;;;;;;6185804;23;20044;-92
2022/10/16 04:23:22;;;;;;;70.45;32.22;;;13.20;99.90;;;;;;6161264;23;20008;-92
2022/10/16 04:25:49;;;;;;;80.05;34.55;;;13.20;99.90;;;;;;6160993;23;20009;-92
2022/10/16 04:28:16;;;;;;;82.15;34.30;;;13.20;99.90;;;;;;6185763;23;20036;-90
2022/10/16 04:30:43;;;;;;;72.82;32.97;;;13.20;99.90;;;;;;6199903;23;20009;-90
2022/10/16 04:33:10;;;;;;;80.70;34.67;;;13.20;99.90;;;;;;6198078;23;20009;-90
2022/10/16 04:35:36;;;;;;;75.95;33.85;;;13.20;99.90;;;;;;6186748;23;20020;-90
2022/10/16 04:38:03;;;;;;;77.25;34.70;;;13.20;99.90;;;;;;6160589;23;20079;-90
2022/10/16 04:40:36;;;;;;;76.15;34.35;;;13.20;99.90;;;;;;6185909;23;20451;-91
2022/10/16 04:43:04;;;;;;;83.57;36.53;;;13.20;99.90;;;;;;6185634;23;20062;-90
2022/10/16 04:45:31;;;;;;;89.82;37.83;;;13.20;99.90;;;;;;6185744;23;20001;-91
2022/10/16 04:47:59;;;;;;;93.65;39.22;;;13.20;99.90;;;;;;6185911;23;20013;-89
2022/10/16 04:50:26;;;;;;;85.63;36.20;;;13.20;99.90;;;;;;6160980;23;20044;-92
2022/10/16 04:53:06;;;;;;;85.78;37.60;;;13.30;99.90;;;;;;6163448;23;20012;-91
2022/10/16 04:55:33;;;;;;;72.30;34.30;;;13.20;99.90;;;;;;6185254;23;20012;-92
2022/10/16 04:58:00;;;;;;;78.32;33.33;;;13.10;99.90;;;;;;6161488;23;20055;-91
2022/10/16 05:00:27;;;;;;;92.38;35.30;;;13.10;99.90;;;;;;6185068;23;20484;-91
2022/10/16 05:02:53;;;;;;;68.78;31.95;;;13.10;99.90;;;;;;6160694;23;20007;-92
2022/10/16 05:05:20;;;;;;;71.90;33.15;;;13.00;99.90;;;;;;6161184;23;20009;-90
2022/10/16 05:07:53;;;;;;;96.22;39.25;;;13.00;99.90;;;;;;6162128;23;20012;-91
2022/10/16 05:10:20;;;;;;;110.28;42.90;;;13.10;99.90;;;;;;6161354;23;20009;-90
2022/10/16 05:12:47;;;;;;;103.57;41.13;;;13.20;99.90;;;;;;6185469;23;20032;-90
2022/10/16 05:15:14;;;;;;;127.03;43.22;;;13.30;99.90;;;;;;6185440;23;20005;-92
2022/10/16 05:17:40;;;;;;;153.10;45.97;;;13.40;99.90;;;;;;6185704;23;20011;-91
2022/10/16 05:20:08;;;;;;;208.23;49.55;;;13.50;99.90;;;;;;6160923;23;20425;-90
2022/10/16 05:22:34;;;;;;;188.40;50.60;;;13.50;99.90;;;;;;6185272;23;20088;-90
2022/10/16 05:25:01;;;;;;;304.77;51.25;;;13.60;99.90;;;;;;6160597;23;20080;-92
2022/10/16 05:27:28;;;;;;;327.40;53.88;;;13.60;99.90;;;;;;6185243;23;20009;-90
2022/10/16 05:29:54;;;;;;;377.75;56.50;;;13.70;99.90;;;;;;6160347;23;20428;-91
2022/10/16 05:32:21;;;;;;;551.13;68.55;;;13.80;99.90;;;;;;6185160;23;20009;-90
2022/10/16 05:34:48;;;;;;;459.23;54.40;;;13.80;99.90;;;;;;6160366;23;20005;-91
2022/10/16 05:37:14;;;;;;;431.13;54.00;;;13.90;99.90;;;;;;6185354;23;20013;-91
2022/10/16 05:39:41;;;;;;;531.78;62.20;;;14.00;99.90;;;;;;6160421;23;20013;-91
2022/10/16 05:42:08;;;;;;;353.00;52.78;;;14.00;99.90;;;;;;6185301;23;20005;-91
2022/10/16 05:44:34;;;;;;;202.93;45.00;;;14.10;99.90;;;;;;6185199;23;20041;-92
2022/10/16 05:47:01;;;;;;;382.13;53.50;;;14.20;99.90;;;;;;6160552;23;20002;-90
2022/10/16 05:49:28;;;;;;;194.75;41.38;;;14.30;99.90;;;;;;6161179;23;20009;-91
2022/10/16 05:51:56;;;;;;;247.73;43.63;;;14.40;99.90;;;;;;6158786;23;20010;-91
2022/10/16 05:54:23;;;;;;;168.70;36.80;;;14.60;99.90;;;;;;6133126;23;20064;-91
2022/10/16 05:56:49;;;;;;;207.63;38.85;;;14.70;99.90;;;;;;6130996;23;20002;-92
2022/10/16 05:59:16;;;;;;;119.82;34.45;;;14.90;99.90;;;;;;6130208;23;20013;-91
2022/10/16 06:01:43;;;;;;;82.53;32.45;;;15.00;99.90;;;;;;6130609;23;20092;-91
2022/10/16 06:04:10;;;;;;;76.32;32.70;;;15.10;99.90;;;;;;6144918;23;20068;-91
2022/10/16 06:06:36;;;;;;;64.82;31.85;;;15.60;99.90;;;;;;6153568;23;20014;-89
2022/10/16 06:09:04;;;;;;;60.47;30.75;;;15.90;99.90;;;;;;6130491;23;20006;-93
2022/10/16 06:11:32;;;;;;;56.15;29.75;;;16.30;99.90;;;;;;6130805;23;20016;-92
2022/10/16 06:14:02;;;;;;;57.75;29.77;;;16.70;99.90;;;;;;6132015;23;20002;-90
2022/10/16 06:16:31;;;;;;;48.33;29.23;;;17.00;99.90;;;;;;6132207;23;20080;-92
2022/10/16 06:18:59;;;;;;;53.88;32.22;;;17.30;99.90;;;;;;6132156;23;20006;-94
2022/10/16 06:21:27;;;;;;;57.85;33.67;;;17.50;99.90;;;;;;6131553;23;20028;-93
2022/10/16 06:23:55;;;;;;;46.92;32.05;;;17.60;99.90;;;;;;6160726;23;20424;-92
2022/10/16 06:26:28;;;;;;;48.75;34.20;;;17.60;99.90;;;;;;6186847;23;20012;-93
2022/10/16 06:28:56;;;;;;;50.78;35.10;;;17.80;99.90;;;;;;6203608;23;20009;-92
2022/10/16 06:31:27;;;;;;;58.97;37.97;;;18.00;99.90;;;;;;6189252;23;20072;-93
2022/10/16 06:33:55;;;;;;;49.60;36.60;;;18.10;99.90;;;;;;6188219;23;20009;-93
2022/10/16 06:36:24;;;;;;;53.92;39.85;;;18.30;99.90;;;;;;6161885;23;20017;-94
2022/10/16 06:38:51;;;;;;;54.95;40.05;;;18.50;99.90;;;;;;6162053;23;20075;-93
2022/10/16 06:41:21;;;;;;;59.55;42.70;;;18.60;99.90;;;;;;6187563;23;20020;-92
2022/10/16 06:43:48;;;;;;;60.72;41.85;;;18.50;99.90;;;;;;6186978;23;20060;-92
2022/10/16 06:46:18;;;;;;;73.07;45.50;;;18.60;99.90;;;;;;6162417;23;20005;-93
2022/10/16 06:48:45;;;;;;;74.10;47.55;;;18.60;99.90;;;;;;6187394;23;20068;-93
2022/10/16 06:51:15;;;;;;;51.70;39.83;;;18.70;99.90;;;;;;6161863;23;20063;-92
2022/10/16 06:53:50;;;;;;;50.15;38.63;;;18.90;99.90;;;;;;6162132;23;20005;-92
2022/10/16 06:56:21;;;;;;;58.90;43.00;;;19.10;99.90;;;;;;6161781;23;20016;-93
2022/10/16 06:58:49;;;;;;;54.60;41.70;;;19.20;99.90;;;;;;6162390;23;20017;-91
2022/10/16 07:01:18;;;;;;;52.13;41.97;;;19.60;99.90;;;;;;6187200;23;20032;-93
2022/10/16 07:03:54;;;;;;;58.83;44.38;;;19.80;99.90;;;;;;6188032;23;20487;-94
2022/10/16 07:09:40;;;;;;;55.92;42.53;;;20.00;99.90;;;;;;6247795;22;20050;-91
2022/10/16 07:12:07;;;;;;;53.47;42.13;;;20.10;99.90;;;;;;6201254;23;20012;-93
2022/10/16 07:14:33;;;;;;;58.50;42.70;;;20.20;99.90;;;;;;6199941;23;20346;-91
2022/10/16 07:17:00;;;;;;;59.58;43.28;;;20.80;99.90;;;;;;6168184;23;20011;-93
2022/10/16 07:19:28;;;;;;;58.67;41.65;;;20.90;99.90;;;;;;6169165;23;20000;-93
2022/10/16 07:21:56;;;;;;;56.70;41.97;;;20.90;99.90;;;;;;6168686;23;20508;-92
2022/10/16 07:24:22;;;;;;;64.60;42.67;;;21.00;99.90;;;;;;6167029;23;20047;-92
2022/10/16 07:26:49;;;;;;;55.22;41.25;;;21.00;99.90;;;;;;6166994;23;20501;-92
2022/10/16 07:29:19;;;;;;;65.38;43.28;;;20.90;99.90;;;;;;6166973;23;20087;-92
2022/10/16 07:31:54;;;;;;;58.97;44.25;;;21.00;99.90;;;;;;6192776;23;20014;-95
2022/10/16 07:34:27;;;;;;;54.00;42.00;;;20.90;99.90;;;;;;6167536;23;20001;-94
2022/10/16 07:36:59;;;;;;;53.53;40.85;;;21.00;99.90;;;;;;6169605;23;20012;-94
2022/10/16 07:39:28;;;;;;;54.03;41.15;;;21.30;99.90;;;;;;6167769;23;20094;-93
2022/10/16 07:41:55;;;;;;;52.03;40.30;;;21.80;99.90;;;;;;6191438;23;20016;-94
2022/10/16 07:44:24;;;;;;;47.65;39.13;;;22.00;99.90;;;;;;6167226;23;20005;-93
2022/10/16 07:46:51;;;;;;;50.67;39.70;;;22.10;99.90;;;;;;6167091;23;20009;-94
2022/10/16 07:49:17;;;;;;;51.15;38.13;;;21.70;99.90;;;;;;6166801;23;20016;-93
2022/10/16 07:51:44;;;;;;;50.20;37.80;;;21.40;99.90;;;;;;6166729;23;20008;-93
2022/10/16 07:54:11;;;;;;;41.67;34.28;;;21.30;99.90;;;;;;6192423;23;20431;-93
2022/10/16 07:56:37;;;;;;;45.67;34.63;;;21.40;99.90;;;;;;6167457;23;20004;-93
2022/10/16 08:00:13;;;;;;;;;;;;;;;;;;;;;
2022/10/16 08:02:51;;;;;;;51.45;34.05;;;21.40;99.90;;;;;;6170267;23;20020;-93
2022/10/16 08:05:29;;;;;;;46.85;33.58;;;21.40;99.90;;;;;;6196006;23;20442;-93
2022/10/16 08:10:56;;;;;;;43.10;30.35;;;21.30;99.90;;;;;;6096164;23;20003;-93
2022/10/16 08:13:30;;;;;;;37.03;29.27;;;21.10;99.90;;;;;;6083321;23;20006;-94
2022/10/16 08:16:01;;;;;;;42.30;30.37;;;21.10;99.90;;;;;;6078336;23;20018;-92
2022/10/16 08:18:36;;;;;;;39.47;28.80;;;21.10;99.90;;;;;;6075323;23;20018;-94
2022/10/16 08:21:15;;;;;;;37.08;28.63;;;21.20;99.90;;;;;;6074181;23;20048;-93
2022/10/16 08:23:45;;;;;;;39.60;28.92;;;21.40;99.90;;;;;;6075099;23;20444;-93
2022/10/16 08:26:22;;;;;;;33.97;25.95;;;21.50;99.90;;;;;;6075741;23;20020;-91
2022/10/16 08:28:52;;;;;;;30.67;24.70;;;21.40;99.90;;;;;;6072711;23;20077;-89
2022/10/16 08:50:40;;;;;;;26.42;22.92;;;21.00;99.90;;;;;;6222135;23;20078;-92
2022/10/16 08:53:11;;;;;;;25.33;22.00;;;21.10;99.90;;;;;;6193623;23;20008;-93
2022/10/16 08:55:42;;;;;;;26.95;22.88;;;21.30;99.90;;;;;;6137765;23;20005;-93
2022/10/16 08:58:21;;;;;;;25.15;22.63;;;21.50;99.90;;;;;;6162437;23;20009;-92
2022/10/16 09:00:56;;;;;;;25.90;23.20;;;21.60;99.90;;;;;;6162430;23;20016;-94
2022/10/16 09:03:35;;;;;;;30.52;24.42;;;21.80;99.90;;;;;;6187289;23;20116;-93
2022/10/16 09:06:11;;;;;;;27.60;24.83;;;21.90;99.90;;;;;;6186622;23;20466;-93
2022/10/16 09:09:03;;;;;;;26.73;23.83;;;22.10;99.90;;;;;;6186066;23;20376;-94
2022/10/16 09:11:51;;;;;;;27.35;23.83;;;22.10;99.90;;;;;;6161905;23;20009;-94
2022/10/16 09:14:43;;;;;;;28.27;23.17;;;22.00;99.90;;;;;;6162696;23;20037;-95
2022/10/16 09:17:28;;;;;;;28.05;23.70;;;22.10;99.90;;;;;;6186453;23;20376;-93
2022/10/16 09:20:18;;;;;;;28.13;22.83;;;22.30;99.90;;;;;;6185609;23;20013;-93
2022/10/16 09:22:45;;;;;;;26.05;21.90;;;22.20;99.90;;;;;;6186498;23;20096;-94
2022/10/16 09:25:20;;;;;;;25.23;22.63;;;22.20;99.90;;;;;;6161434;23;20015;-92
2022/10/16 09:27:52;;;;;;;24.02;21.63;;;22.30;99.90;;;;;;6185982;23;20005;-92
2022/10/16 09:30:21;;;;;;;23.50;21.05;;;22.20;99.90;;;;;;6185779;23;20009;-93
2022/10/16 09:32:52;;;;;;;22.67;20.58;;;22.00;99.90;;;;;;6185983;23;20043;-93
2022/10/16 09:35:51;;;;;;;24.17;21.88;;;22.00;99.90;;;;;;6161369;23;20016;-93
2022/10/16 09:38:28;;;;;;;23.58;21.30;;;22.10;99.90;;;;;;6159140;23;20063;-93
2022/10/16 09:40:58;;;;;;;23.33;21.00;;;22.10;99.90;;;;;;6185713;23;20024;-93
2022/10/16 09:43:30;;;;;;;23.88;21.63;;;22.00;99.90;;;;;;6160870;23;20013;-93
2022/10/16 09:46:00;;;;;;;23.07;20.63;;;22.00;99.90;;;;;;6187899;23;20013;-93
2022/10/16 09:48:43;;;;;;;22.60;20.20;;;22.10;99.90;;;;;;6166361;23;20306;-93
2022/10/16 09:51:36;;;;;;;22.50;20.50;;;22.10;99.90;;;;;;6198576;23;20065;-93
2022/10/16 09:54:20;;;;;;;22.23;20.35;;;22.20;99.90;;;;;;6187960;23;20009;-92
2022/10/16 09:56:51;;;;;;;;;;;22.30;99.90;;;;;;6190176;23;20370;-92
2022/10/16 09:59:20;;;;;;;21.70;19.90;;;22.40;99.90;;;;;;6164044;23;19968;-93
2022/10/16 10:01:53;;;;;;;22.75;20.75;;;22.40;99.90;;;;;;6164308;23;20020;-93
2022/10/16 10:04:22;;;;;;;23.20;21.23;;;22.50;99.90;;;;;;6166188;23;20033;-93
2022/10/16 10:06:50;;;;;;;23.60;20.98;;;22.50;99.90;;;;;;6188193;23;20092;-94
2022/10/16 10:09:22;;;;;;;22.35;20.30;;;22.60;99.90;;;;;;6162671;23;20005;-93
2022/10/16 10:11:55;;;;;;;22.50;20.65;;;22.70;99.90;;;;;;6188270;23;20396;-94
2022/10/16 10:14:24;;;;;;;22.20;20.27;;;22.60;99.90;;;;;;6187560;23;20016;-93
2022/10/16 10:17:02;;;;;;;23.00;20.73;;;22.30;99.90;;;;;;6163001;23;20005;-93
2022/10/16 10:19:28;;;;;;;22.10;20.27;;;22.30;99.90;;;;;;6163005;23;20009;-93
2022/10/16 10:21:57;;;;;;;21.38;19.13;;;22.40;99.90;;;;;;6163988;23;20013;-93
2022/10/16 10:24:24;;;;;;;21.02;19.00;;;22.50;99.90;;;;;;6188097;23;20001;-92
2022/10/16 10:27:14;;;;;;;20.98;19.08;;;22.50;99.90;;;;;;6163537;23;20064;-93
2022/10/16 10:30:23;;;;;;;21.08;19.17;;;22.50;99.90;;;;;;6189451;23;20013;-92
2022/10/16 10:33:25;;;;;;;21.95;19.80;;;22.50;99.90;;;;;;6135812;23;20009;-95
2022/10/16 10:36:10;;;;;;;21.77;19.80;;;22.60;99.90;;;;;;6192799;23;20060;-93
2022/10/16 10:38:39;;;;;;;19.85;18.05;;;22.60;99.90;;;;;;6162107;23;20304;-93
2022/10/16 10:41:42;;;;;;;21.05;18.98;;;22.50;99.90;;;;;;6162040;23;20017;-94
2022/10/16 10:44:30;;;;;;;21.50;19.42;;;22.50;99.90;;;;;;6186964;23;20001;-94
2022/10/16 10:47:20;;;;;;;21.85;19.85;;;22.50;99.90;;;;;;6187071;23;20009;-94
2022/10/16 10:50:06;;;;;;;21.95;19.88;;;22.50;99.90;;;;;;6161778;23;20072;-93
2022/10/16 10:52:54;;;;;;;21.75;19.73;;;22.50;99.90;;;;;;6187074;23;20009;-93
2022/10/16 10:55:42;;;;;;;21.08;18.98;;;22.30;99.90;;;;;;6187100;23;20087;-94
2022/10/16 10:58:33;;;;;;;19.98;18.17;;;22.20;99.90;;;;;;6161593;23;20365;-94
2022/10/16 11:01:39;;;;;;;21.42;19.45;;;22.20;99.90;;;;;;6188669;23;20017;-94
2022/10/16 11:04:11;;;;;;;;;;;22.30;99.90;;;;;;6183155;23;20088;-93
2022/10/16 11:06:46;;;;;;;22.45;20.38;;;22.50;99.90;;;;;;6157981;23;19905;-93
2022/10/16 11:09:32;;;;;;;23.10;20.73;;;22.40;99.90;;;;;;6136879;23;20065;-93
2022/10/16 11:12:29;;;;;;;23.73;20.88;;;22.30;99.90;;;;;;6135518;23;20014;-94
2022/10/16 11:15:12;;;;;;;23.20;20.98;;;22.40;99.90;;;;;;6132372;23;20006;-94
2022/10/16 11:18:17;;;;;;;23.30;21.05;;;22.50;99.90;;;;;;6109547;23;20447;-92
2022/10/16 11:21:10;;;;;;;22.77;20.67;;;22.50;99.90;;;;;;6041901;23;20019;-93
2022/10/16 11:24:32;;;;;;;23.05;20.85;;;22.60;99.90;;;;;;6045293;23;20011;-93
2022/10/16 11:27:05;;;;;;;23.10;20.90;;;22.70;99.90;;;;;;5965314;24;20019;-93
2022/10/16 11:29:35;;;;;;;22.80;20.73;;;22.80;99.90;;;;;;5944293;24;20009;-93
2022/10/16 11:32:23;;;;;;;21.20;19.40;;;22.80;99.90;;;;;;5966465;24;20519;-93
2022/10/16 11:35:00;;;;;;;24.35;22.00;;;22.40;99.90;;;;;;5985534;23;19996;-92
2022/10/16 11:37:47;;;;;;;24.50;22.00;;;22.50;99.90;;;;;;5970470;24;20022;-93
2022/10/16 11:40:35;;;;;;;23.23;20.85;;;22.40;99.90;;;;;;5967259;24;20447;-91
2022/10/16 11:43:17;;;;;;;20.67;18.88;;;22.30;99.90;;;;;;5972070;24;20036;-92
2022/10/16 11:45:52;;;;;;;22.23;20.13;;;22.30;99.90;;;;;;5965672;24;20016;-93
2022/10/16 11:48:49;;;;;;;22.50;20.45;;;22.50;99.90;;;;;;5963644;23;20431;-91
2022/10/16 11:51:25;;;;;;;22.35;20.35;;;22.60;99.90;;;;;;5983922;24;20115;-92
2022/10/16 11:54:02;;;;;;;22.30;19.80;;;22.50;99.90;;;;;;5974604;23;20095;-92
2022/10/16 11:56:36;;;;;;;22.92;20.67;;;22.30;99.90;;;;;;6068771;23;20052;-92
2022/10/16 11:59:31;;;;;;;22.10;19.85;;;22.20;99.90;;;;;;6044906;23;20021;-93
2022/10/16 12:02:24;;;;;;;23.25;21.08;;;22.20;99.90;;;;;;6048618;23;20015;-92
2022/10/16 12:05:11;;;;;;;24.83;22.23;;;22.30;99.90;;;;;;6186348;23;20017;-93
2022/10/16 12:07:47;;;;;;;25.45;22.92;;;22.20;99.90;;;;;;6161473;23;20338;-92
2022/10/16 12:10:42;;;;;;;22.77;20.48;;;22.20;99.90;;;;;;6186206;23;20001;-92
2022/10/16 12:13:32;;;;;;;22.48;20.40;;;22.30;99.90;;;;;;6098614;23;20018;-93
2022/10/16 12:16:12;;;;;;;24.38;21.98;;;22.40;99.90;;;;;;6074242;23;20014;-92
2022/10/16 12:18:41;;;;;;;23.80;21.42;;;22.20;99.90;;;;;;6072820;23;20066;-92
2022/10/16 12:21:08;;;;;;;24.52;22.15;;;22.20;99.90;;;;;;6073888;23;20014;-92
2022/10/16 12:23:39;;;;;;;24.65;22.27;;;22.10;99.90;;;;;;6074541;23;20010;-93
2022/10/16 12:26:06;;;;;;;25.23;22.67;;;22.10;99.90;;;;;;6076584;23;20144;-93
2022/10/16 12:28:34;;;;;;;27.55;22.75;;;22.10;99.90;;;;;;6076573;23;20138;-94
2022/10/16 12:31:09;;;;;;;24.98;22.67;;;22.20;99.90;;;;;;6081935;23;20010;-93
2022/10/16 12:34:01;;;;;;;25.33;22.70;;;22.00;99.90;;;;;;6074631;23;20010;-92
2022/10/16 12:36:35;;;;;;;25.63;22.92;;;22.00;99.90;;;;;;6073026;23;20093;-93
2022/10/16 12:39:03;;;;;;;25.85;23.17;;;22.10;99.90;;;;;;6073801;23;20006;-94
2022/10/16 12:41:40;;;;;;;25.70;22.35;;;22.10;99.90;;;;;;6073666;23;20046;-93
2022/10/16 12:44:42;;;;;;;25.50;22.90;;;22.00;99.90;;;;;;6073942;23;20007;-92
2022/10/16 12:47:42;;;;;;;26.40;23.80;;;21.90;99.90;;;;;;6098829;23;20010;-92
2022/10/16 12:50:26;;;;;;;26.98;24.17;;;22.00;99.90;;;;;;6115599;23;20028;-92
2022/10/16 12:52:53;;;;;;;27.27;24.58;;;22.10;99.90;;;;;;6187019;23;20016;-94
2022/10/16 12:55:22;;;;;;;24.85;22.35;;;22.10;99.90;;;;;;6162566;23;20005;-94
2022/10/16 12:58:29;;;;;;;25.38;22.77;;;22.10;99.90;;;;;;6186938;23;20451;-93
2022/10/16 13:01:11;;;;;;;26.05;23.30;;;22.10;99.90;;;;;;6187328;23;20419;-94
2022/10/16 13:04:00;;;;;;;25.40;22.80;;;22.00;99.90;;;;;;6186717;23;20032;-94
2022/10/16 13:06:45;;;;;;;26.48;23.83;;;22.00;99.90;;;;;;6189788;23;20068;-93
2022/10/16 13:09:39;;;;;;;27.45;22.83;;;21.90;99.90;;;;;;6188194;23;20009;-93
2022/10/16 13:12:32;;;;;;;25.90;23.33;;;21.90;99.90;;;;;;6187273;23;20009;-93
2022/10/16 13:15:08;;;;;;;26.10;23.55;;;21.80;99.90;;;;;;6069868;23;20038;-92
2022/10/16 13:17:45;;;;;;;25.83;22.98;;;21.80;99.90;;;;;;6066240;23;20002;-94
2022/10/16 13:20:52;;;;;;;24.58;21.98;;;21.90;99.90;;;;;;6054061;23;20019;-93
2022/10/16 13:23:42;;;;;;;27.90;23.90;;;21.90;99.90;;;;;;6045182;23;20089;-93
2022/10/16 13:26:46;;;;;;;25.40;22.65;;;21.90;99.90;;;;;;6045043;23;20015;-92
2022/10/16 13:29:14;;;;;;;22.27;20.35;;;21.90;99.90;;;;;;6045175;23;20031;-92